Time;durP1;ratioP1;P1;durP2;ratioP2;P2;SDS_P1;SDS_P2;PMS_P1;PMS_P2;Temp;Humidity;BMP_temperature;BMP_pressure;BME280_temperature;BME280_humidity;BME280_pressure;Samples;Min_cycle;Max_cycle;Signal;HPM_P1;HPM_P2
2021/03/14 00:00:24;;;;;;;9.20;8.40;;;29.20;93.00;;;;;;5065957;28;20240;-52
2021/03/14 00:02:55;;;;;;;9.10;8.23;;;29.20;93.10;;;;;;5064641;28;20247;-50
2021/03/14 00:05:28;;;;;;;9.00;8.15;;;29.20;93.10;;;;;;5062706;28;20220;-52
2021/03/14 00:07:59;;;;;;;8.43;7.65;;;29.20;93.10;;;;;;5048633;28;20208;-51
2021/03/14 00:10:29;;;;;;;9.48;8.15;;;29.20;93.10;;;;;;5048188;28;20649;-52
2021/03/14 00:12:59;;;;;;;11.05;8.35;;;29.20;93.10;;;;;;5063284;28;20575;-52
2021/03/14 00:15:30;;;;;;;9.55;8.70;;;29.20;93.20;;;;;;5049179;28;20213;-56
2021/03/14 00:18:11;;;;;;;9.52;8.68;;;29.30;93.30;;;;;;5056310;28;20238;-50
2021/03/14 00:20:42;;;;;;;9.20;8.30;;;29.30;93.30;;;;;;5067000;28;20637;-54
2021/03/14 00:23:14;;;;;;;11.63;8.73;;;29.30;93.40;;;;;;5051096;28;20284;-53
2021/03/14 00:25:44;;;;;;;9.30;8.55;;;29.30;93.40;;;;;;5066048;28;21322;-51
2021/03/14 00:28:16;;;;;;;9.45;8.55;;;29.40;93.50;;;;;;5066499;28;20202;-51
2021/03/14 00:30:47;;;;;;;9.77;8.98;;;29.30;93.50;;;;;;5066276;28;20223;-54
2021/03/14 00:33:17;;;;;;;8.93;8.13;;;29.40;93.50;;;;;;5066153;28;20205;-55
2021/03/14 00:35:49;;;;;;;9.50;8.57;;;29.40;93.60;;;;;;5048233;28;20256;-54
2021/03/14 00:38:19;;;;;;;9.45;8.63;;;29.50;93.70;;;;;;5048958;28;20256;-52
2021/03/14 00:40:50;;;;;;;10.07;9.10;;;29.50;93.70;;;;;;5048630;28;20305;-52
2021/03/14 00:43:21;;;;;;;10.13;9.13;;;29.50;93.60;;;;;;5048338;28;20194;-51
2021/03/14 00:45:51;;;;;;;10.38;9.38;;;29.50;93.60;;;;;;5048218;28;20277;-51
2021/03/14 00:48:37;;;;;;;10.30;8.77;;;29.60;93.70;;;;;;5053749;28;20228;-54
2021/03/14 00:51:10;;;;;;;10.32;8.75;;;29.60;93.60;;;;;;5065812;28;20241;-55
2021/03/14 00:53:40;;;;;;;10.57;8.98;;;29.60;93.60;;;;;;5066096;28;20248;-49
2021/03/14 00:56:11;;;;;;;9.35;8.43;;;29.70;93.60;;;;;;5063182;28;20229;-50
2021/03/14 00:58:42;;;;;;;9.32;8.35;;;29.70;93.60;;;;;;5062409;28;20701;-52
2021/03/14 01:01:13;;;;;;;10.20;9.20;;;29.70;93.50;;;;;;5048379;28;20286;-56
2021/03/14 01:03:44;;;;;;;8.65;7.85;;;29.80;93.60;;;;;;5048633;28;20265;-53
2021/03/14 01:06:16;;;;;;;9.57;8.63;;;29.90;93.50;;;;;;5048163;28;20267;-51
2021/03/14 01:08:46;;;;;;;9.45;8.65;;;29.90;93.40;;;;;;5048439;28;20450;-51
2021/03/14 01:11:17;;;;;;;10.00;9.10;;;30.00;93.50;;;;;;5049431;28;20249;-53
2021/03/14 01:13:48;;;;;;;10.18;8.98;;;30.00;93.40;;;;;;5052344;28;20247;-52
2021/03/14 01:16:18;;;;;;;10.02;9.13;;;30.00;93.40;;;;;;5052613;28;20208;-54
2021/03/14 01:18:53;;;;;;;10.38;8.93;;;30.10;93.30;;;;;;5052200;28;20258;-53
2021/03/14 01:21:25;;;;;;;10.40;9.25;;;30.10;93.30;;;;;;5052481;28;20198;-51
2021/03/14 01:23:56;;;;;;;8.90;8.10;;;30.20;93.10;;;;;;5052420;28;20599;-52
2021/03/14 01:26:27;;;;;;;9.82;8.90;;;30.30;93.10;;;;;;5052088;28;20221;-51
2021/03/14 01:28:57;;;;;;;9.05;8.25;;;30.30;93.10;;;;;;5052484;28;20285;-52
2021/03/14 01:31:27;;;;;;;9.55;8.55;;;30.40;93.20;;;;;;5055880;28;20232;-54
2021/03/14 01:33:58;;;;;;;10.27;9.27;;;30.40;93.20;;;;;;5069747;28;20233;-52
2021/03/14 01:36:29;;;;;;;10.65;8.75;;;30.50;93.10;;;;;;5069642;28;20194;-51
2021/03/14 01:39:00;;;;;;;10.27;9.10;;;30.50;92.90;;;;;;5068672;28;20296;-53
2021/03/14 01:41:30;;;;;;;9.63;8.77;;;30.60;92.80;;;;;;5066680;28;20252;-55
2021/03/14 01:44:01;;;;;;;13.48;9.65;;;30.60;92.70;;;;;;5058235;28;20201;-51
2021/03/14 01:46:32;;;;;;;9.82;8.82;;;30.70;92.60;;;;;;5069835;28;20206;-50
2021/03/14 01:49:16;;;;;;;10.43;9.43;;;30.80;92.60;;;;;;5057886;28;20213;-50
2021/03/14 01:51:47;;;;;;;9.70;8.70;;;30.80;92.40;;;;;;5056630;28;20719;-50
2021/03/14 01:54:17;;;;;;;8.52;7.72;;;30.90;92.40;;;;;;5051497;28;20232;-49
2021/03/14 01:56:48;;;;;;;12.63;11.38;;;31.00;92.40;;;;;;5051416;28;20194;-52
2021/03/14 01:59:18;;;;;;;11.52;10.30;;;31.00;91.30;;;;;;5051296;28;20206;-54
2021/03/14 02:01:49;;;;;;;11.00;9.25;;;31.00;91.50;;;;;;5051062;28;21032;-49
2021/03/14 02:04:20;;;;;;;10.07;9.18;;;31.10;91.40;;;;;;5051479;28;20204;-53
2021/03/14 02:06:52;;;;;;;10.38;9.38;;;31.10;91.50;;;;;;5050624;28;20578;-51
2021/03/14 02:09:22;;;;;;;10.60;9.50;;;31.20;91.10;;;;;;5056160;28;20208;-52
2021/03/14 02:11:52;;;;;;;10.18;8.95;;;31.30;90.90;;;;;;5061936;28;20309;-52
2021/03/14 02:14:23;;;;;;;9.57;8.68;;;31.30;90.80;;;;;;5065222;28;20214;-50
2021/03/14 02:16:53;;;;;;;10.02;9.13;;;31.40;90.80;;;;;;5050808;28;20821;-52
2021/03/14 02:19:41;;;;;;;11.10;9.95;;;31.50;90.60;;;;;;5050241;28;20583;-53
2021/03/14 02:22:14;;;;;;;10.18;9.18;;;31.60;90.00;;;;;;5063797;28;20182;-54
2021/03/14 02:24:45;;;;;;;9.35;8.43;;;31.60;90.00;;;;;;5066230;28;20200;-53
2021/03/14 02:27:17;;;;;;;9.07;8.30;;;31.70;90.00;;;;;;5068508;28;20201;-52
2021/03/14 02:29:48;;;;;;;10.27;9.02;;;31.80;89.70;;;;;;5068761;28;20634;-52
2021/03/14 02:32:19;;;;;;;9.52;8.63;;;31.90;89.50;;;;;;5068097;28;20857;-54
2021/03/14 02:34:51;;;;;;;10.25;9.23;;;31.90;89.50;;;;;;5068207;28;20207;-53
2021/03/14 02:37:22;;;;;;;10.98;9.98;;;32.00;89.10;;;;;;5025866;28;20289;-52
2021/03/14 02:39:54;;;;;;;11.38;10.27;;;32.10;87.60;;;;;;5015499;28;20211;-51
2021/03/14 02:42:27;;;;;;;11.10;9.80;;;32.20;86.90;;;;;;5007773;28;20330;-51
2021/03/14 02:44:58;;;;;;;11.70;10.38;;;32.20;86.50;;;;;;5007522;28;20328;-54
2021/03/14 02:47:28;;;;;;;12.55;11.30;;;32.30;85.20;;;;;;5007630;28;20858;-50
2021/03/14 02:50:07;;;;;;;11.80;10.80;;;32.30;83.70;;;;;;5007378;28;20699;-53
2021/03/14 02:52:37;;;;;;;11.57;10.48;;;32.30;83.80;;;;;;5015586;28;20227;-53
2021/03/14 02:55:09;;;;;;;11.82;10.63;;;32.30;84.30;;;;;;5018388;28;20311;-50
2021/03/14 02:57:41;;;;;;;10.40;9.48;;;32.40;83.20;;;;;;4949075;28;20252;-54
2021/03/14 03:00:13;;;;;;;11.43;10.23;;;32.30;84.10;;;;;;4948824;28;20241;-52
2021/03/14 03:02:45;;;;;;;11.20;9.98;;;32.40;84.10;;;;;;4949304;28;20550;-53
2021/03/14 03:05:16;;;;;;;12.13;11.00;;;32.40;84.10;;;;;;4960877;28;20223;-51
2021/03/14 03:07:48;;;;;;;12.70;11.43;;;32.40;82.80;;;;;;4968823;28;20206;-54
2021/03/14 03:10:18;;;;;;;11.32;10.32;;;32.40;82.30;;;;;;5024628;28;20211;-52
2021/03/14 03:12:50;;;;;;;11.52;10.52;;;32.40;82.60;;;;;;5018252;28;20317;-53
2021/03/14 03:15:21;;;;;;;11.68;10.60;;;32.50;82.70;;;;;;5008840;28;20254;-53
2021/03/14 03:17:51;;;;;;;12.85;11.60;;;32.40;82.30;;;;;;5007540;28;20477;-54
2021/03/14 03:20:25;;;;;;;11.88;10.85;;;32.50;81.90;;;;;;5007605;28;20203;-51
2021/03/14 03:22:57;;;;;;;13.75;11.80;;;32.50;81.50;;;;;;5006977;28;20662;-51
2021/03/14 03:25:28;;;;;;;11.77;10.50;;;32.50;81.50;;;;;;5006828;28;20336;-53
2021/03/14 03:27:59;;;;;;;11.40;10.27;;;32.60;82.00;;;;;;5023499;28;20222;-49
2021/03/14 03:30:30;;;;;;;12.65;11.48;;;32.60;81.60;;;;;;5024755;28;20269;-53
2021/03/14 03:33:00;;;;;;;11.82;10.73;;;32.60;81.00;;;;;;5024837;28;20195;-51
2021/03/14 03:35:31;;;;;;;11.55;10.50;;;32.70;81.90;;;;;;5051321;28;20240;-50
2021/03/14 03:38:01;;;;;;;12.45;11.25;;;32.70;82.10;;;;;;5065140;28;20737;-52
2021/03/14 03:40:35;;;;;;;12.75;11.18;;;32.80;82.00;;;;;;5053525;28;20202;-54
2021/03/14 03:43:11;;;;;;;14.02;11.30;;;32.80;81.20;;;;;;5024056;28;20206;-53
2021/03/14 03:45:42;;;;;;;12.68;11.30;;;32.90;81.40;;;;;;5024006;28;20209;-52
2021/03/14 03:48:14;;;;;;;12.23;10.93;;;32.90;81.00;;;;;;5022535;28;20211;-52
2021/03/14 03:50:50;;;;;;;13.32;11.63;;;33.00;81.00;;;;;;5012352;28;20269;-49
2021/03/14 03:53:20;;;;;;;12.30;10.93;;;33.00;80.60;;;;;;5010479;28;20807;-53
2021/03/14 03:55:51;;;;;;;14.32;11.63;;;33.00;80.80;;;;;;5006457;28;20295;-50
2021/03/14 03:58:23;;;;;;;12.10;10.80;;;33.00;80.30;;;;;;5006413;28;20355;-52
2021/03/14 04:00:53;;;;;;;12.73;11.55;;;33.00;80.30;;;;;;5022840;28;20954;-50
2021/03/14 04:03:25;;;;;;;13.68;12.38;;;33.00;79.30;;;;;;5023644;28;20731;-53
2021/03/14 04:05:58;;;;;;;11.77;10.68;;;33.00;79.60;;;;;;5024021;28;20195;-50
2021/03/14 04:08:28;;;;;;;13.95;12.68;;;33.00;79.50;;;;;;5024045;28;20282;-50
2021/03/14 04:10:59;;;;;;;13.10;12.00;;;33.00;78.70;;;;;;5005720;28;20718;-53
2021/03/14 04:13:30;;;;;;;15.60;13.23;;;33.00;79.00;;;;;;5015456;28;20210;-50
2021/03/14 04:16:01;;;;;;;12.52;11.32;;;33.00;78.60;;;;;;5048501;28;20224;-51
2021/03/14 04:18:32;;;;;;;15.18;12.85;;;33.00;79.60;;;;;;5048218;28;20197;-52
2021/03/14 04:21:14;;;;;;;11.35;10.30;;;32.90;78.70;;;;;;5048763;28;20197;-52
2021/03/14 04:23:45;;;;;;;12.63;11.52;;;33.00;79.40;;;;;;5048670;28;20208;-50
2021/03/14 04:26:18;;;;;;;13.88;12.48;;;33.00;79.20;;;;;;5048283;28;20200;-50
2021/03/14 04:28:49;;;;;;;14.10;12.70;;;33.00;79.20;;;;;;5048136;28;20837;-53
2021/03/14 04:31:20;;;;;;;13.35;12.15;;;33.10;78.70;;;;;;5047756;28;20249;-50
2021/03/14 04:33:51;;;;;;;14.05;12.65;;;33.10;78.60;;;;;;5052065;28;20215;-50
2021/03/14 04:36:22;;;;;;;13.75;12.27;;;33.10;78.30;;;;;;5058233;28;20234;-49
2021/03/14 04:38:52;;;;;;;15.00;12.95;;;33.20;78.20;;;;;;5048399;28;20208;-53
2021/03/14 04:41:23;;;;;;;13.13;11.80;;;33.20;78.20;;;;;;5048706;28;20233;-53
2021/03/14 04:43:54;;;;;;;13.70;12.50;;;33.20;78.30;;;;;;5062008;28;20237;-52
2021/03/14 04:46:25;;;;;;;13.60;12.30;;;33.20;77.40;;;;;;5064881;28;20308;-49
2021/03/14 04:48:57;;;;;;;13.23;12.02;;;33.20;77.00;;;;;;5065137;28;20209;-51
2021/03/14 04:51:37;;;;;;;13.18;11.40;;;33.20;77.80;;;;;;5064707;28;20235;-51
2021/03/14 04:54:10;;;;;;;12.13;10.40;;;33.30;78.00;;;;;;5065024;28;20213;-52
2021/03/14 04:56:40;;;;;;;10.68;9.75;;;33.30;78.00;;;;;;5065803;28;20204;-52
2021/03/14 04:59:12;;;;;;;11.68;10.57;;;33.40;78.40;;;;;;5065548;28;20514;-52
2021/03/14 05:01:44;;;;;;;11.75;10.60;;;33.50;78.00;;;;;;5064972;28;20224;-52
2021/03/14 05:04:17;;;;;;;12.23;11.13;;;33.50;78.00;;;;;;5049387;28;20571;-50
2021/03/14 05:06:48;;;;;;;12.18;11.07;;;33.60;76.90;;;;;;5065901;28;21057;-52
2021/03/14 05:09:18;;;;;;;14.68;12.80;;;33.70;76.50;;;;;;5065662;28;20681;-51
2021/03/14 05:11:49;;;;;;;13.77;12.50;;;33.80;75.40;;;;;;5065455;28;20568;-51
2021/03/14 05:14:20;;;;;;;14.70;13.23;;;33.80;75.00;;;;;;5063707;28;20894;-53
2021/03/14 05:16:51;;;;;;;13.70;12.32;;;33.90;75.20;;;;;;5062008;28;20654;-53
2021/03/14 05:19:22;;;;;;;13.38;12.10;;;33.90;75.00;;;;;;5065616;28;20208;-52
2021/03/14 05:21:59;;;;;;;13.88;12.50;;;33.90;75.00;;;;;;5065112;28;20242;-53
2021/03/14 05:24:30;;;;;;;13.18;11.98;;;34.00;74.80;;;;;;5049243;28;20198;-53
2021/03/14 05:27:04;;;;;;;12.98;11.68;;;34.10;75.10;;;;;;5061941;28;20202;-54
2021/03/14 05:29:35;;;;;;;12.32;11.18;;;34.10;74.10;;;;;;5005187;28;20567;-51
2021/03/14 05:32:06;;;;;;;14.32;12.93;;;34.20;74.20;;;;;;5004638;28;20235;-52
2021/03/14 05:34:37;;;;;;;13.50;12.30;;;34.20;73.60;;;;;;5005708;28;20227;-54
2021/03/14 05:37:07;;;;;;;12.85;11.65;;;34.20;73.30;;;;;;5020768;28;20264;-49
2021/03/14 05:39:38;;;;;;;12.80;11.60;;;34.20;73.80;;;;;;5022645;28;20206;-52
2021/03/14 05:42:09;;;;;;;11.70;10.63;;;34.20;73.50;;;;;;5022559;28;20286;-54
2021/03/14 05:44:40;;;;;;;11.60;10.60;;;34.20;74.10;;;;;;5009941;28;20204;-53
2021/03/14 05:47:11;;;;;;;12.00;10.90;;;34.30;73.50;;;;;;5018950;28;20245;-50
2021/03/14 05:49:42;;;;;;;13.15;11.77;;;34.30;73.30;;;;;;5005459;28;20922;-54
2021/03/14 05:52:20;;;;;;;12.77;11.50;;;34.40;73.70;;;;;;5015516;28;20217;-52
2021/03/14 05:54:52;;;;;;;13.48;12.18;;;34.40;73.50;;;;;;5021269;28;20215;-49
2021/03/14 05:57:23;;;;;;;13.45;12.25;;;34.40;73.50;;;;;;5020554;28;20191;-52
2021/03/14 05:59:55;;;;;;;13.68;12.18;;;34.50;73.10;;;;;;5032103;28;20227;-53
2021/03/14 06:02:26;;;;;;;12.85;11.55;;;34.50;72.20;;;;;;5065843;28;20698;-52
2021/03/14 06:04:57;;;;;;;12.43;11.15;;;34.50;72.80;;;;;;5068508;28;20193;-52
2021/03/14 06:07:27;;;;;;;12.07;10.52;;;34.50;72.70;;;;;;5067953;28;20907;-54
2021/03/14 06:09:58;;;;;;;12.77;11.57;;;34.50;73.00;;;;;;5066350;28;20206;-55
2021/03/14 06:12:29;;;;;;;12.05;10.95;;;34.40;72.10;;;;;;5069024;28;20205;-52
2021/03/14 06:15:00;;;;;;;12.88;11.77;;;34.40;72.50;;;;;;5068381;28;20675;-54
2021/03/14 06:17:31;;;;;;;13.77;12.38;;;34.40;72.30;;;;;;5065321;28;20284;-54
2021/03/14 06:20:02;;;;;;;11.65;10.40;;;34.40;72.30;;;;;;5066517;28;20202;-53
2021/03/14 06:22:48;;;;;;;12.50;11.30;;;34.40;72.40;;;;;;5067804;28;20189;-54
2021/03/14 06:25:27;;;;;;;13.35;11.20;;;34.40;72.70;;;;;;5067948;28;20186;-51
2021/03/14 06:27:58;;;;;;;10.50;9.60;;;34.40;72.60;;;;;;5065192;28;20285;-54
2021/03/14 06:30:30;;;;;;;15.60;13.20;;;34.40;73.40;;;;;;5065675;28;20226;-53
2021/03/14 06:33:09;;;;;;;12.60;11.40;;;34.40;72.40;;;;;;5068268;28;20240;-51
2021/03/14 06:35:40;;;;;;;11.85;10.75;;;34.40;72.90;;;;;;5068476;28;20221;-53
2021/03/14 06:38:26;;;;;;;12.80;11.50;;;34.30;73.10;;;;;;5066921;28;20190;-52
2021/03/14 06:41:18;;;;;;;16.42;14.05;;;34.30;73.40;;;;;;5065881;28;20194;-51
2021/03/14 06:43:49;;;;;;;14.13;12.68;;;34.20;72.20;;;;;;5066504;28;20212;-53
2021/03/14 06:46:25;;;;;;;14.43;13.23;;;34.20;72.40;;;;;;5067384;28;20240;-48
2021/03/14 06:49:09;;;;;;;19.63;17.95;;;34.20;72.10;;;;;;5066034;28;20194;-53
2021/03/14 06:51:40;;;;;;;16.48;15.07;;;34.20;70.30;;;;;;5066193;28;20227;-49
2021/03/14 06:54:26;;;;;;;17.50;15.98;;;34.20;69.70;;;;;;5067435;28;20186;-54
2021/03/14 06:57:08;;;;;;;18.38;16.77;;;34.20;67.70;;;;;;5066447;28;20202;-51
2021/03/14 06:59:39;;;;;;;17.40;15.90;;;34.20;67.30;;;;;;5050362;28;20329;-49
2021/03/14 07:02:12;;;;;;;16.48;15.13;;;34.20;68.40;;;;;;5050235;28;20230;-51
2021/03/14 07:04:47;;;;;;;17.33;15.93;;;34.20;67.20;;;;;;5050617;28;20206;-51
2021/03/14 07:07:22;;;;;;;36.35;33.22;;;34.20;66.50;;;;;;5065717;28;20352;-54
2021/03/14 07:09:57;;;;;;;19.33;17.65;;;34.20;67.40;;;;;;5061900;28;20206;-52
2021/03/14 07:12:29;;;;;;;15.65;14.45;;;34.30;67.90;;;;;;5058653;28;20298;-48
2021/03/14 07:15:10;;;;;;;15.55;14.18;;;34.40;68.20;;;;;;5067451;28;20208;-50
2021/03/14 07:17:42;;;;;;;13.90;12.80;;;34.40;67.90;;;;;;5060287;28;20200;-50
2021/03/14 07:20:14;;;;;;;14.68;13.48;;;34.60;67.80;;;;;;5060514;28;20641;-50
2021/03/14 07:22:46;;;;;;;15.40;14.07;;;34.70;67.30;;;;;;5057347;28;20201;-50
2021/03/14 07:25:23;;;;;;;16.00;14.50;;;34.70;67.00;;;;;;5008568;28;20594;-50
2021/03/14 07:27:53;;;;;;;17.05;15.35;;;34.80;64.30;;;;;;5025016;28;20231;-50
2021/03/14 07:30:25;;;;;;;12.70;11.60;;;34.80;65.00;;;;;;5024363;28;20214;-51
2021/03/14 07:32:57;;;;;;;13.30;11.98;;;34.90;66.30;;;;;;5024035;28;20881;-49
2021/03/14 07:35:28;;;;;;;12.45;11.25;;;34.90;67.30;;;;;;5010230;28;20211;-53
2021/03/14 07:37:59;;;;;;;12.48;11.18;;;35.00;67.30;;;;;;5007021;28;20206;-50
2021/03/14 07:40:30;;;;;;;13.00;11.73;;;35.00;67.80;;;;;;5007026;28;20724;-51
2021/03/14 07:43:01;;;;;;;12.18;10.95;;;35.10;67.80;;;;;;5014613;28;20207;-54
2021/03/14 07:45:32;;;;;;;11.05;9.88;;;35.10;68.50;;;;;;5023095;28;20215;-50
2021/03/14 07:48:04;;;;;;;11.55;10.43;;;35.10;68.60;;;;;;5021008;28;20860;-52
2021/03/14 07:50:37;;;;;;;13.48;12.27;;;35.20;68.30;;;;;;5009010;28;20227;-50
2021/03/14 07:53:09;;;;;;;13.02;11.73;;;35.30;67.30;;;;;;5023292;28;20241;-53
2021/03/14 07:55:40;;;;;;;12.52;11.32;;;35.30;67.30;;;;;;5033574;28;20296;-52
2021/03/14 07:58:13;;;;;;;17.48;15.60;;;35.40;67.20;;;;;;5063499;28;20223;-51
2021/03/14 08:00:45;;;;;;;16.33;14.82;;;35.40;65.50;;;;;;5048297;28;21330;-51
2021/03/14 08:03:17;;;;;;;14.20;12.88;;;35.40;66.40;;;;;;5048514;28;20273;-51
2021/03/14 08:05:51;;;;;;;13.70;12.43;;;35.40;66.90;;;;;;5047848;28;20642;-51
2021/03/14 08:08:45;;;;;;;14.10;12.70;;;35.50;66.40;;;;;;5062198;28;20224;-49
2021/03/14 08:11:26;;;;;;;14.10;12.75;;;35.60;64.80;;;;;;5064299;28;20198;-54
2021/03/14 08:13:57;;;;;;;11.57;10.57;;;35.50;65.70;;;;;;5064039;28;20633;-54
2021/03/14 08:16:28;;;;;;;12.63;11.43;;;35.60;66.30;;;;;;5053142;28;20190;-55
2021/03/14 08:19:11;;;;;;;11.63;10.63;;;35.60;66.20;;;;;;5063479;28;20197;-50
2021/03/14 08:21:42;;;;;;;13.50;11.45;;;35.60;66.50;;;;;;5057445;28;20192;-52
2021/03/14 08:24:16;;;;;;;11.98;10.88;;;35.60;66.00;;;;;;5065648;28;20201;-50
2021/03/14 08:26:46;;;;;;;12.50;11.30;;;35.60;66.40;;;;;;5063694;28;20194;-53
2021/03/14 08:29:17;;;;;;;12.10;10.88;;;35.60;65.70;;;;;;5064519;28;20213;-50
2021/03/14 08:31:49;;;;;;;14.70;13.20;;;35.50;65.80;;;;;;5066263;28;20210;-54
2021/03/14 08:34:22;;;;;;;19.90;16.98;;;35.50;65.90;;;;;;5065807;28;20558;-52
2021/03/14 08:36:53;;;;;;;18.52;16.63;;;35.50;66.20;;;;;;5051866;28;20267;-54
2021/03/14 08:39:24;;;;;;;14.50;13.15;;;35.40;66.40;;;;;;5046865;28;20197;-55
2021/03/14 08:41:57;;;;;;;14.65;13.15;;;35.30;66.00;;;;;;5047045;28;20206;-51
2021/03/14 08:44:38;;;;;;;12.77;11.38;;;35.30;66.60;;;;;;5046523;28;20226;-49
2021/03/14 08:47:10;;;;;;;11.02;8.85;;;35.20;66.80;;;;;;5047201;28;20206;-49
2021/03/14 08:49:44;;;;;;;10.45;9.38;;;35.20;67.40;;;;;;5047769;28;20277;-49
2021/03/14 08:52:15;;;;;;;10.60;9.57;;;35.10;67.40;;;;;;5051960;28;20244;-50
2021/03/14 08:54:46;;;;;;;9.18;8.38;;;35.10;67.10;;;;;;5056348;28;20646;-49
2021/03/14 08:57:17;;;;;;;11.90;10.70;;;35.10;67.50;;;;;;5059664;28;20182;-49
2021/03/14 08:59:48;;;;;;;11.32;10.23;;;35.10;67.50;;;;;;5062192;28;20233;-54
2021/03/14 09:02:26;;;;;;;11.90;10.70;;;35.00;67.70;;;;;;5063472;28;20279;-49
2021/03/14 09:05:10;;;;;;;11.68;10.63;;;35.00;67.40;;;;;;5064635;28;20196;-49
2021/03/14 09:07:40;;;;;;;11.25;10.25;;;35.00;67.20;;;;;;5063659;28;20565;-49
2021/03/14 09:10:13;;;;;;;12.32;10.50;;;35.00;67.20;;;;;;5061181;28;20712;-52
2021/03/14 09:12:43;;;;;;;11.85;10.80;;;35.00;66.70;;;;;;5063771;28;20201;-52
2021/03/14 09:15:14;;;;;;;12.70;11.43;;;35.00;66.60;;;;;;5063850;28;20625;-52
2021/03/14 09:17:45;;;;;;;12.13;10.95;;;35.00;66.00;;;;;;5064885;28;20193;-52
2021/03/14 09:20:20;;;;;;;11.43;10.32;;;34.90;66.10;;;;;;5063075;28;20767;-52
2021/03/14 09:22:50;;;;;;;10.57;9.60;;;34.90;66.50;;;;;;5061915;28;20964;-50
2021/03/14 09:25:21;;;;;;;11.88;10.77;;;34.80;66.80;;;;;;5064239;28;20277;-53
2021/03/14 09:27:52;;;;;;;10.43;9.38;;;34.80;66.50;;;;;;5063606;28;20186;-52
2021/03/14 09:30:23;;;;;;;12.00;10.90;;;34.80;66.90;;;;;;5063931;28;20202;-51
2021/03/14 09:32:54;;;;;;;13.45;12.02;;;34.80;66.70;;;;;;5065308;28;20228;-49
2021/03/14 09:35:27;;;;;;;11.48;10.25;;;34.70;66.20;;;;;;5066029;28;20193;-51
2021/03/14 09:37:58;;;;;;;11.18;10.18;;;34.80;66.40;;;;;;5067591;28;20193;-50
2021/03/14 09:40:35;;;;;;;13.20;11.85;;;34.70;66.80;;;;;;5068528;28;20198;-49
2021/03/14 09:43:14;;;;;;;12.25;11.05;;;34.70;66.50;;;;;;5065772;28;20233;-50
2021/03/14 09:45:46;;;;;;;10.25;9.30;;;34.70;66.90;;;;;;5067350;28;20185;-51
2021/03/14 09:48:17;;;;;;;10.77;9.77;;;34.60;67.40;;;;;;5055715;28;20692;-49
2021/03/14 09:50:51;;;;;;;11.13;10.13;;;34.60;67.40;;;;;;5051152;28;20309;-53
2021/03/14 09:53:22;;;;;;;11.43;10.25;;;34.60;67.40;;;;;;5053150;28;20755;-50
2021/03/14 09:55:53;;;;;;;12.40;11.13;;;34.60;67.40;;;;;;5068185;28;20202;-50
2021/03/14 09:58:24;;;;;;;13.68;12.10;;;34.60;67.90;;;;;;5068284;28;20197;-54
2021/03/14 10:00:55;;;;;;;11.73;10.52;;;34.60;67.30;;;;;;5061003;28;20236;-49
2021/03/14 10:03:26;;;;;;;10.77;9.70;;;34.50;67.90;;;;;;5059624;28;20222;-49
2021/03/14 10:05:58;;;;;;;10.98;10.00;;;34.50;68.20;;;;;;5064249;28;20194;-51
2021/03/14 10:08:29;;;;;;;10.90;9.77;;;34.50;68.30;;;;;;5067860;28;20620;-50
2021/03/14 10:11:00;;;;;;;10.13;9.23;;;34.50;68.50;;;;;;5067894;28;20201;-52
2021/03/14 10:13:31;;;;;;;11.90;10.77;;;34.50;68.50;;;;;;5066260;28;20696;-53
2021/03/14 10:16:05;;;;;;;12.40;11.23;;;34.50;68.20;;;;;;5066103;28;20290;-55
2021/03/14 10:18:36;;;;;;;12.77;11.60;;;34.50;68.00;;;;;;5060596;28;20193;-53
2021/03/14 10:21:22;;;;;;;12.00;11.00;;;34.40;68.10;;;;;;5049971;28;20213;-52
2021/03/14 10:23:53;;;;;;;11.10;10.10;;;34.40;68.40;;;;;;5050573;28;20199;-53
2021/03/14 10:26:24;;;;;;;11.15;10.10;;;34.30;68.40;;;;;;5065878;28;20666;-55
2021/03/14 10:28:54;;;;;;;10.63;9.30;;;34.30;68.70;;;;;;5055373;28;20607;-50
2021/03/14 10:31:24;;;;;;;12.77;11.48;;;34.30;68.80;;;;;;5053850;28;20202;-50
2021/03/14 10:33:58;;;;;;;10.40;9.40;;;34.20;68.80;;;;;;5050770;28;20214;-54
2021/03/14 10:36:35;;;;;;;12.18;10.75;;;34.20;69.10;;;;;;5023330;28;20206;-53
2021/03/14 10:39:06;;;;;;;10.07;9.10;;;34.20;69.60;;;;;;5017750;28;20210;-49
2021/03/14 10:41:41;;;;;;;11.07;9.95;;;34.20;69.80;;;;;;5008249;28;20211;-53
2021/03/14 10:44:12;;;;;;;10.05;9.15;;;34.30;69.60;;;;;;5007579;28;21006;-53
2021/03/14 10:46:45;;;;;;;10.02;9.02;;;34.30;69.40;;;;;;5009923;28;20847;-52
2021/03/14 10:49:16;;;;;;;10.07;8.98;;;34.30;69.30;;;;;;5011307;28;20705;-52
2021/03/14 10:51:52;;;;;;;11.18;10.07;;;34.40;69.40;;;;;;5015877;28;20309;-55
2021/03/14 10:54:24;;;;;;;11.15;10.13;;;34.40;69.30;;;;;;5005133;28;20562;-50
2021/03/14 10:56:55;;;;;;;11.23;9.35;;;34.50;69.20;;;;;;5018770;28;20277;-49
2021/03/14 10:59:26;;;;;;;11.57;10.48;;;34.50;69.20;;;;;;5006589;28;20203;-49
2021/03/14 11:01:59;;;;;;;11.20;9.88;;;34.40;69.00;;;;;;5040409;28;20230;-49
2021/03/14 11:04:33;;;;;;;10.80;9.63;;;34.40;69.10;;;;;;5044794;28;20284;-53
2021/03/14 11:07:24;;;;;;;11.50;9.57;;;34.30;69.20;;;;;;5047317;28;20226;-51
2021/03/14 11:10:08;;;;;;;10.02;9.02;;;34.20;69.60;;;;;;5058862;28;20206;-52
2021/03/14 11:12:39;;;;;;;10.00;9.13;;;34.20;69.90;;;;;;5062649;28;20255;-50
2021/03/14 11:15:26;;;;;;;10.70;9.60;;;34.10;69.60;;;;;;5051202;28;20292;-51
2021/03/14 11:17:56;;;;;;;11.65;10.45;;;34.00;69.90;;;;;;5061080;28;20278;-51
2021/03/14 11:20:28;;;;;;;9.75;8.85;;;33.90;69.70;;;;;;5049456;28;20199;-50
2021/03/14 11:23:00;;;;;;;11.43;9.45;;;33.90;70.10;;;;;;5049659;28;20205;-50
2021/03/14 11:25:31;;;;;;;14.95;12.07;;;33.80;70.20;;;;;;5050917;28;20206;-50
2021/03/14 11:28:01;;;;;;;11.20;10.10;;;33.70;70.80;;;;;;5065975;28;20206;-50
2021/03/14 11:30:32;;;;;;;10.57;9.55;;;33.50;70.80;;;;;;5066426;28;20244;-52
2021/03/14 11:33:03;;;;;;;11.80;10.75;;;33.40;71.20;;;;;;5065983;28;20246;-48
2021/03/14 11:35:34;;;;;;;12.50;11.10;;;33.40;71.50;;;;;;5051324;28;20200;-49
2021/03/14 11:38:06;;;;;;;15.77;12.68;;;33.30;71.80;;;;;;5066380;28;20557;-50
2021/03/14 11:40:37;;;;;;;17.33;14.30;;;33.20;72.10;;;;;;5066789;28;20193;-49
2021/03/14 11:43:12;;;;;;;13.60;12.30;;;33.20;72.30;;;;;;5066707;28;20640;-51
2021/03/14 11:45:43;;;;;;;13.00;11.25;;;33.10;72.50;;;;;;5051566;28;20214;-54
2021/03/14 11:48:13;;;;;;;13.05;11.00;;;33.10;72.70;;;;;;5065029;28;20228;-52
2021/03/14 11:50:44;;;;;;;13.73;12.35;;;33.00;72.90;;;;;;5066809;28;20576;-49
2021/03/14 11:53:16;;;;;;;14.13;11.98;;;33.00;73.10;;;;;;5066234;28;20613;-51
2021/03/14 11:55:47;;;;;;;15.43;12.63;;;33.00;73.30;;;;;;5065782;28;20866;-52
2021/03/14 11:58:19;;;;;;;13.70;12.25;;;32.90;73.40;;;;;;5064177;28;21348;-49
2021/03/14 12:00:49;;;;;;;13.55;11.50;;;32.90;73.70;;;;;;5063875;28;20225;-49
2021/03/14 12:03:20;;;;;;;13.00;11.65;;;32.80;73.90;;;;;;5066491;28;20190;-53
2021/03/14 12:05:51;;;;;;;11.88;10.68;;;32.80;74.10;;;;;;5065159;28;20280;-49
2021/03/14 12:08:22;;;;;;;12.23;10.30;;;32.80;74.30;;;;;;5062304;28;20189;-50
2021/03/14 12:10:53;;;;;;;10.57;9.48;;;32.70;74.60;;;;;;5065787;28;20206;-52
2021/03/14 12:13:23;;;;;;;11.02;9.77;;;32.70;74.70;;;;;;5062370;28;20216;-51
2021/03/14 12:15:55;;;;;;;10.65;9.65;;;32.70;74.90;;;;;;5065049;28;20311;-50
2021/03/14 12:18:26;;;;;;;10.73;9.63;;;32.70;75.10;;;;;;5064410;28;20185;-52
2021/03/14 12:20:56;;;;;;;10.20;9.20;;;32.60;75.10;;;;;;5063825;28;20556;-51
2021/03/14 12:23:29;;;;;;;11.20;10.13;;;32.60;75.30;;;;;;5065851;28;20209;-52
2021/03/14 12:25:59;;;;;;;13.02;11.75;;;32.60;76.30;;;;;;5064406;28;20673;-53
2021/03/14 12:28:34;;;;;;;11.93;10.73;;;32.60;75.60;;;;;;5065815;28;20200;-51
2021/03/14 12:31:04;;;;;;;11.95;10.65;;;32.50;75.70;;;;;;5063441;28;20784;-53
2021/03/14 12:33:35;;;;;;;11.15;10.05;;;32.50;76.00;;;;;;5063991;28;20210;-51
2021/03/14 12:36:06;;;;;;;10.98;9.88;;;32.40;76.10;;;;;;5063846;28;20272;-50
2021/03/14 12:38:39;;;;;;;12.20;9.82;;;32.50;76.40;;;;;;5064409;28;20217;-49
2021/03/14 12:41:10;;;;;;;9.30;8.30;;;32.40;76.70;;;;;;5063913;28;20201;-52
2021/03/14 12:43:40;;;;;;;9.15;8.35;;;32.40;76.70;;;;;;5064290;28;20189;-50
2021/03/14 12:46:11;;;;;;;9.82;8.82;;;32.40;76.90;;;;;;5065747;28;20220;-48
2021/03/14 12:48:41;;;;;;;9.52;8.57;;;32.40;77.00;;;;;;5065905;28;20293;-49
2021/03/14 12:51:12;;;;;;;11.30;9.50;;;32.40;77.20;;;;;;5065169;28;20235;-49
2021/03/14 12:53:44;;;;;;;11.70;9.45;;;32.30;78.10;;;;;;5064467;28;20214;-50
2021/03/14 12:56:15;;;;;;;9.45;8.45;;;32.30;77.40;;;;;;5065682;28;20207;-48